Portada
METAR-TAF:

METAR-TAF

Aeropuertos :

Santa Cruz de la Sierra, Bolivia

Aeropuerto El Trompillo

latitud: 17-48S, longitud: 063-11W, altitud: 418 m

Observación

El informe se hizo hace 54 minutos, a las 17:00 UTC
Viento 13 kt del sur-sureste
Temperatura 23°C
Humedad 44%
Presión 1018 hPa
Visibilidad 10 km o más

METAR: SLET 281700Z 15013KT 9999 NSC 23/10 Q1018

Hora: 13:54 (17:54 UTC)

Pronóstico

El informe se hizo hace 1 hora y 54 minutos, a las 16:00 UTC
Pronóstico válido del 28 a las 18 UTC al 29 a las 18 UTC
Viento 12 kt del sur
Visibilidad 10 km o más
Temporalmente
del 29 a las 09 UTC al 29 a las 12 UTC
Nubes dispersas a una altura de 7000 ft

TAF: SLET 281600Z 2818/2918 18012KT 9999 NSC TX25/2819Z TN16/2911Z TEMPO 2909/2912 SCT070

Observaciones y pronósticos meteorológicos de más de 4000 aeropuertos (mensajes METAR y TAF).

Los puntos amarillos y rojos representan las estaciones disponibles.

Ponga el ratón en el punto deseado para ver el nombre de la estación.

Haga clic para ver las observaciones y los pronósticos meteorológicos.

Para cambiar el mapa : haga clic en los botones verdes con una cruz de color negro para hacer un zoom, en el botón verde con un guión para alejar o en las flechas verdes para mapas adyacentes.


METAR-TAF: